Wetterstation-Oberesslingen
Wetterdaten: aktuell Freitag, 21.09.2018 05:45
Datum Zeit Temperatur Temp+5cm Luftfeuchte Luftdruck Regen Wind Richtung Richtung Sonnenschein Zeit Regen ET Solar Taupunkt Windchill Windben
21.09.2018 05:45 13,3 C 11,1 C 91 % 1012,6 hPa 0,0 l/m 1,1 km/h (1 Bft) SO 134 0 min 0 min 0,000 mm 0 W/m 11,9 C 13,3 C 1,1 km/h (1 Bft)
21.09.2018 04:45 14,1 C 12,2 C 89 % 1012,9 hPa 0,0 l/m 1,1 km/h (1 Bft) O-SO 112 0 min 0 min 0,000 mm 0 W/m 12,3 C 14,1 C 3,2 km/h (1 Bft)
21.09.2018 03:42 14,7 C 13,3 C 88 % 1013,3 hPa 0,0 l/m 5,0 km/h (1 Bft) SO 132 0 min 0 min 0,000 mm 0 W/m 12,7 C 14,7 C 10,8 km/h (2 Bft)
21.09.2018 03:03 14,9 C 12,8 C 87 % 1013,7 hPa 0,0 l/m 3,3 km/h (1 Bft) O-SO 114 0 min 0 min 0,000 mm 0 W/m 12,8 C 14,9 C 4,3 km/h (1 Bft)
21.09.2018 02:24 15,5 C 12,8 C 85 % 1013,9 hPa 0,0 l/m 4,1 km/h (1 Bft) SO 125 0 min 0 min 0,000 mm 0 W/m 13,0 C 15,5 C 6,0 km/h (2 Bft)
21.09.2018 01:42 15,8 C 12,8 C 84 % 1014,2 hPa 0,0 l/m 3,4 km/h (1 Bft) O 100 0 min 0 min 0,000 mm 0 W/m 13,1 C 15,8 C 4,3 km/h (1 Bft)
21.09.2018 01:03 16,6 C 13,9 C 81 % 1014,4 hPa 0,0 l/m 6,1 km/h (2 Bft) O-SO 115 0 min 0 min 0,000 mm 0 W/m 13,3 C 16,6 C 12,4 km/h (2 Bft)
21.09.2018 00:24 17,0 C 13,9 C 79 % 1014,6 hPa 0,0 l/m 3,3 km/h (1 Bft) O-SO 114 0 min 0 min 0,000 mm 0 W/m 13,3 C 17,0 C 6,0 km/h (2 Bft)
20.09.2018 23:45 16,9 C 13,3 C 78 % 1014,9 hPa 0,0 l/m 2,3 km/h (1 Bft) O 86 0 min 0 min 0,000 mm 0 W/m 13,0 C 16,9 C 2,7 km/h (1 Bft)
20.09.2018 23:06 17,2 C 13,9 C 77 % 1015,2 hPa 0,0 l/m 1,1 km/h (1 Bft) O-NO 63 0 min 0 min 0,000 mm 0 W/m 13,1 C 17,2 C 1,1 km/h (1 Bft)
20.09.2018 22:27 18,3 C 14,4 C 72 % 1015,3 hPa 0,0 l/m 2,4 km/h (1 Bft) N-NO 32 0 min 0 min 0,000 mm 0 W/m 13,2 C 18,3 C 4,3 km/h (1 Bft)
20.09.2018 21:48 19,6 C 16,1 C 67 % 1015,4 hPa 0,0 l/m 1,6 km/h (1 Bft) N-NW 329 0 min 0 min 0,001 mm 0 W/m 13,3 C 19,6 C 2,7 km/h (1 Bft)
20.09.2018 21:09 20,5 C 16,1 C 64 % 1015,6 hPa 0,0 l/m 1,9 km/h (1 Bft) N-NW 329 0 min 0 min 0,001 mm 0 W/m 13,5 C 20,5 C 2,7 km/h (1 Bft)
20.09.2018 20:30 22,3 C 18,3 C 57 % 1015,6 hPa 0,0 l/m 4,4 km/h (1 Bft) NW 310 0 min 0 min 0,025 mm 0 W/m 13,4 C 22,3 C 6,0 km/h (2 Bft)
20.09.2018 19:51 23,8 C 19,4 C 52 % 1015,4 hPa 0,0 l/m 3,0 km/h (1 Bft) NW 306 3 min 0 min 0,076 mm 0 W/m 13,3 C 23,8 C 6,0 km/h (2 Bft)
20.09.2018 19:12 24,2 C 19,4 C 57 % 1015,2 hPa 0,0 l/m 1,1 km/h (1 Bft) W-NW 291 0 min 0 min 0,076 mm 12 W/m 15,1 C 24,2 C 1,1 km/h (1 Bft)
20.09.2018 18:33 27,3 C 22,8 C 42 % 1015,3 hPa 0,0 l/m 4,4 km/h (1 Bft) W 272 36 min 0 min 0,001 mm 56 W/m 13,2 C 27,3 C 7,6 km/h (2 Bft)
20.09.2018 17:54 28,5 C 25,6 C 39 % 1015,6 hPa 0,0 l/m 5,5 km/h (2 Bft) NW 314 60 min 0 min 0,304 mm 160 W/m 13,2 C 28,5 C 10,8 km/h (2 Bft)
20.09.2018 17:15 29,3 C 27,8 C 37 % 1015,8 hPa 0,0 l/m 5,5 km/h (2 Bft) W-SW 253 57 min 0 min 0,304 mm 281 W/m 13,1 C 29,3 C 12,4 km/h (2 Bft)
20.09.2018 16:36 29,7 C 28,3 C 36 % 1016,3 hPa 0,0 l/m 4,1 km/h (1 Bft) W 280 60 min 0 min 0,381 mm 387 W/m 13,0 C 29,7 C 7,6 km/h (2 Bft)
20.09.2018 15:57 29,7 C 33,3 C 37 % 1016,5 hPa 0,0 l/m 6,3 km/h (2 Bft) S-SO 162 60 min 0 min 0,001 mm 485 W/m 13,4 C 29,7 C 14,0 km/h (3 Bft)
20.09.2018 15:18 29,4 C 30,0 C 39 % 1017,0 hPa 0,0 l/m 4,5 km/h (1 Bft) O-SO 109 60 min 0 min 0,001 mm 571 W/m 14,0 C 29,4 C 7,6 km/h (2 Bft)
20.09.2018 14:39 28,9 C 33,3 C 40 % 1017,5 hPa 0,0 l/m 5,3 km/h (1 Bft) W 275 60 min 0 min 0,457 mm 645 W/m 13,9 C 28,9 C 12,4 km/h (2 Bft)
20.09.2018 14:00 28,3 C 33,3 C 45 % 1018,1 hPa 0,0 l/m 4,7 km/h (1 Bft) O 94 60 min 0 min 0,432 mm 656 W/m 15,2 C 28,3 C 7,6 km/h (2 Bft)
20.09.2018 13:21 27,5 C 30,6 C 45 % 1018,6 hPa 0,0 l/m 4,2 km/h (1 Bft) NW 324 60 min 0 min 0,432 mm 652 W/m 14,5 C 27,5 C 6,0 km/h (2 Bft)
20.09.2018 12:42 26,3 C 31,1 C 49 % 1019,2 hPa 0,0 l/m 3,5 km/h (1 Bft) SW 225 60 min 0 min 0,330 mm 645 W/m 14,7 C 26,3 C 6,0 km/h (2 Bft)
20.09.2018 12:03 24,8 C 27,8 C 53 % 1019,6 hPa 0,0 l/m 2,6 km/h (1 Bft) W 272 60 min 0 min 0,330 mm 617 W/m 14,6 C 24,8 C 4,3 km/h (1 Bft)
20.09.2018 11:24 23,7 C 33,9 C 58 % 1020,1 hPa 0,0 l/m 3,1 km/h (1 Bft) W-SW 242 54 min 0 min 0,279 mm 568 W/m 14,9 C 23,7 C 4,3 km/h (1 Bft)
20.09.2018 10:45 21,4 C 30,0 C 67 % 1020,4 hPa 0,0 l/m 4,1 km/h (1 Bft) O 101 60 min 0 min 0,203 mm 506 W/m 15,0 C 21,4 C 7,6 km/h (2 Bft)
20.09.2018 10:06 19,4 C 26,7 C 74 % 1020,5 hPa 0,0 l/m 4,4 km/h (1 Bft) SO 129 60 min 0 min 0,203 mm 376 W/m 14,6 C 19,4 C 7,6 km/h (2 Bft)
20.09.2018 09:27 17,9 C 24,4 C 79 % 1020,6 hPa 0,0 l/m 4,9 km/h (1 Bft) O 88 60 min 0 min 0,001 mm 320 W/m 14,2 C 17,9 C 7,6 km/h (2 Bft)
20.09.2018 08:48 16,1 C 17,2 C 84 % 1020,5 hPa 0,0 l/m 3,9 km/h (1 Bft) SO 144 36 min 0 min 0,025 mm 214 W/m 13,4 C 16,1 C 6,0 km/h (2 Bft)
20.09.2018 08:09 14,6 C 13,3 C 89 % 1020,5 hPa 0,0 l/m 3,8 km/h (1 Bft) O-SO 118 12 min 0 min 0,025 mm 90 W/m 12,8 C 14,6 C 6,0 km/h (2 Bft)
20.09.2018 07:30 13,7 C 12,2 C 91 % 1020,3 hPa 0,0 l/m 1,3 km/h (1 Bft) SO 129 9 min 0 min 0,000 mm 26 W/m 12,3 C 13,7 C 2,7 km/h (1 Bft)
20.09.2018 06:51 13,6 C 12,2 C 92 % 1020,1 hPa 0,0 l/m 4,0 km/h (1 Bft) SO 127 0 min 0 min 0,000 mm 0 W/m 12,3 C 13,6 C 6,0 km/h (2 Bft)
20.09.2018 06:09 13,8 C 11,7 C 91 % 1020,0 hPa 0,0 l/m 1,1 km/h (1 Bft) SO 134 0 min 0 min 0,000 mm 0 W/m 12,4 C 13,8 C 1,1 km/h (1 Bft)
20.09.2018 06:00 13,9 C 12,8 C 91 % 1020,0 hPa 0,0 l/m 3,6 km/h (1 Bft) SO 134 0 min 0 min 0,000 mm 0 W/m 12,5 C 13,9 C 6,0 km/h (2 Bft)
_ Min-Zeit 05:45 06:21 16:33 05:34 - 06:06 - - - - - - 05:42 05:45 06:06
Minimum _ 13,3 C 11,1 C 34 % 1012,5 hPa - 1,1 km/h (1 Bft) - - - - - - 11,8 C 13,3 C 1,1 km/h (1 Bft)
_ Max-Zeit 16:00 11:12 06:21 08:24 06:00 15:48 - - 07:18 06:00 14:03 14:12 12:51 16:00 13:30
Maximum _ 29,9 C 34,4 C 92 % 1020,6 hPa 0,0 l/m 7,8 km/h
O (2 Bft)
- - 3 min 0 min 0,457 mm 707 W/m 15,8 C 29,9 C 15,6 km/h
N (3 Bft)
Durchschnitt _ 20,2 C 19,9 C 69 % 1017,0 hPa #0,0 l/m 3,7 km/h (1 Bft) SO - #0 min. #0 min. #0,000 mm 0 W/m 13,4 C 20,2 C 6,3 km/h (2 Bft)